Etusivu
METAR-TAF:

METAR-TAF

Lentoasemat :

Tamanrasset, Algeria

Leveyspiiri: 22-49N, Pituuspiiri: 005-28E, korkeus merenpinnasta: 1377 m

Tämänhetkinen sää

Tämä raportti tehtiin 29 minuuttia sitten, kello 21.00 UTC
Tuuli 4 kn lounaasta
Lämpötila 17°C
Kosteus 13%
Ilmanpaine 1026 hPa
Näkyvyys 10 km tai enemmän
ei pilviä alle 1500 m:ssä eikä cumulonimbus-pilviä

METAR: DAAT 162100Z 23004KT CAVOK 17/M12 Q1026

Aika: 22:29 (21:29 UTC)

Sääennuste

Tämä raportti tehtiin 4 tuntia ja 29 minuuttia sitten, kello 17.00 UTC
Ennuste voimassa 16. päivästä klo 18 UTC - 17. päivään klo 18 UTC
Tuuli 8 kn idästä/kaakosta
Näkyvyys 10 km tai enemmän
ei pilviä alle 1500 m:ssä eikä cumulonimbus-pilviä
Tulossa
17. päivästä klo 03 UTC - 17. päivään klo 06 UTC
Tuuli 16 kn idästä
Tulossa
17. päivästä klo 09 UTC - 17. päivään klo 12 UTC
Tuuli 6 kn idästä

TAF: DAAT 161700Z 1618/1718 12008KT CAVOK BECMG 1703/1706 08016KT BECMG 1709/1712 08006KT

Säähavainnot ja -ennusteet yli 4000 lentoasemalta (METAR- ja TAF-raportit).

Käytössä olevat sääasemat on merkitty karttaan keltaisilla ja punaisilla pisteillä.

Aseta hiiri pisteen päälle nähdäksesi sääaseman nimen.

Klikkaa sitten nähdäksesi säähavainnot ja -ennusteet.

Kartan vaihtaminen: klikkaa mustalla rastilla varustettuja vihreitä pisteitä, niin voit zoomata sisään; viivalla varustettua vihreää pistettä, niin voit zoomata ulos tai vihreitä nuolia, niin pääset viereisille kartoille.


METAR-TAF: